Time;durP1;ratioP1;P1;durP2;ratioP2;P2;SDS_P1;SDS_P2;PMS_P1;PMS_P2;Temp;Humidity;BMP_temperature;BMP_pressure;BME280_temperature;BME280_humidity;BME280_pressure;Samples;Min_cycle;Max_cycle;Signal;HPM_P1;HPM_P2
2022/04/18 00:00:49;;;;;;;16.67;7.18;;;;;;;24.40;13.82;98508.19;5075225;28;20089;-77
2022/04/18 00:03:15;;;;;;;12.95;5.68;;;;;;;24.35;13.68;98513.47;5075315;28;20079;-77
2022/04/18 00:05:41;;;;;;;17.75;7.13;;;;;;;24.37;13.59;98506.22;5076030;28;20044;-78
2022/04/18 00:08:08;;;;;;;12.18;6.40;;;;;;;24.24;14.05;98505.25;5075162;28;20032;-77
2022/04/18 00:10:34;;;;;;;12.90;6.63;;;;;;;23.99;14.14;98497.16;5078774;28;20074;-77
2022/04/18 00:13:00;;;;;;;11.52;6.03;;;;;;;23.87;14.26;98506.19;5072673;28;20036;-77
2022/04/18 00:15:26;;;;;;;10.73;5.35;;;;;;;23.88;14.30;98504.16;5075656;28;20123;-77
2022/04/18 00:17:52;;;;;;;15.25;6.63;;;;;;;23.94;14.29;98499.66;5071077;28;20093;-77
2022/04/18 00:20:18;;;;;;;14.40;5.47;;;;;;;24.00;13.84;98495.97;5073019;28;20028;-77
2022/04/18 00:22:44;;;;;;;14.32;6.60;;;;;;;24.04;13.76;98496.69;5080379;28;20040;-77
2022/04/18 00:25:10;;;;;;;13.57;6.75;;;;;;;24.04;13.89;98496.69;5072859;28;20093;-77
2022/04/18 00:27:36;;;;;;;16.92;7.50;;;;;;;24.21;13.39;98488.44;5071687;28;20119;-77
2022/04/18 00:30:03;;;;;;;14.75;7.35;;;;;;;24.33;13.48;98496.28;5075979;28;20387;-77
2022/04/18 00:32:29;;;;;;;15.00;6.10;;;;;;;24.44;13.35;98491.28;5075311;28;20509;-77
2022/04/18 00:34:55;;;;;;;13.32;7.20;;;;;;;24.44;13.51;98480.84;5076339;28;20035;-77
2022/04/18 00:37:21;;;;;;;14.57;6.70;;;;;;;24.57;13.58;98487.47;5073677;28;20040;-76
2022/04/18 00:39:47;;;;;;;15.93;6.85;;;;;;;24.51;13.36;98480.72;5075110;28;20032;-76
2022/04/18 00:42:13;;;;;;;14.32;6.20;;;;;;;24.12;13.86;98474.16;5075568;28;20035;-76
2022/04/18 00:44:39;;;;;;;18.10;7.25;;;;;;;24.01;13.86;98479.94;5072725;28;20032;-76
2022/04/18 00:47:06;;;;;;;15.27;6.78;;;;;;;23.98;13.90;98475.97;5071795;28;20075;-76
2022/04/18 00:49:34;;;;;;;14.05;5.75;;;;;;;24.09;13.73;98475.00;5072151;28;20573;-77
2022/04/18 00:52:01;;;;;;;16.15;7.30;;;;;;;23.90;13.74;98466.06;5075049;28;20082;-77
2022/04/18 00:54:27;;;;;;;14.27;7.03;;;;;;;23.64;14.34;98466.84;5074145;28;20086;-77
2022/04/18 00:56:54;;;;;;;17.15;6.88;;;;;;;23.28;14.46;98465.69;5074690;28;20028;-76
2022/04/18 00:59:20;;;;;;;10.65;5.45;;;;;;;22.97;14.85;98473.25;5071062;28;20722;-77
2022/04/18 01:01:47;;;;;;;16.52;7.03;;;;;;;23.42;14.32;98467.53;5073685;28;20054;-77
2022/04/18 01:04:13;;;;;;;13.10;6.30;;;;;;;23.55;13.96;98465.78;5070084;28;20032;-77
2022/04/18 01:06:39;;;;;;;16.80;7.75;;;;;;;23.62;14.18;98463.66;5070956;28;20405;-77
2022/04/18 01:09:06;;;;;;;12.85;6.63;;;;;;;23.59;14.04;98460.91;5075754;28;20049;-77
2022/04/18 01:11:33;;;;;;;17.40;7.30;;;;;;;23.56;14.23;98451.34;5070176;28;20120;-77
2022/04/18 01:14:02;;;;;;;17.70;7.35;;;;;;;23.53;14.06;98457.78;5072412;28;20401;-77
2022/04/18 01:16:29;;;;;;;15.43;7.10;;;;;;;23.64;14.31;98450.00;5070890;28;20367;-77
2022/04/18 01:18:57;;;;;;;14.52;6.75;;;;;;;23.55;14.16;98449.75;5074780;28;20047;-78
2022/04/18 01:21:23;;;;;;;15.20;6.85;;;;;;;23.75;14.37;98449.88;5071823;28;20078;-78
2022/04/18 01:23:49;;;;;;;13.48;6.70;;;;;;;24.02;13.74;98443.03;5074209;28;20107;-77
2022/04/18 01:29:03;;;;;;;14.65;6.45;;;;;;;24.37;13.68;98438.88;5077203;28;20089;-78
2022/04/18 01:31:34;;;;;;;13.95;6.72;;;;;;;24.49;13.22;98423.41;5071053;28;20032;-77
2022/04/18 01:34:02;;;;;;;16.13;6.80;;;;;;;24.57;13.33;98419.28;5076524;28;20678;-78
2022/04/18 01:36:28;;;;;;;13.25;6.57;;;;;;;24.23;13.88;98432.69;5078280;28;20082;-77
2022/04/18 01:38:55;;;;;;;15.80;7.22;;;;;;;24.32;13.90;98413.31;5075459;28;20032;-78
2022/04/18 01:41:22;;;;;;;11.40;6.70;;;;;;;24.54;13.83;98409.69;5071777;28;20493;-78
2022/04/18 01:43:48;;;;;;;15.43;6.45;;;;;;;24.71;13.60;98408.53;5072654;28;20070;-78
2022/04/18 01:46:15;;;;;;;11.55;6.40;;;;;;;24.66;13.55;98399.84;5072417;28;20044;-78
2022/04/18 01:48:42;;;;;;;16.65;6.88;;;;;;;24.24;14.00;98409.03;5074107;28;20032;-78
2022/04/18 01:51:08;;;;;;;11.00;6.05;;;;;;;24.07;14.22;98402.50;5076348;28;20062;-78
2022/04/18 01:53:34;;;;;;;17.60;6.47;;;;;;;23.86;14.31;98402.81;5075102;28;20498;-78
2022/04/18 01:56:00;;;;;;;14.82;7.72;;;;;;;23.60;14.57;98403.63;5072954;28;20570;-78
2022/04/18 01:58:27;;;;;;;11.98;7.38;;;;;;;23.26;15.04;98412.91;5068273;28;20051;-78
2022/04/18 02:00:53;;;;;;;15.48;8.30;;;;;;;22.18;16.08;98418.47;5061444;28;20127;-78
2022/04/18 02:03:19;;;;;;;13.52;6.55;;;;;;;22.42;16.28;98420.25;5061518;28;20115;-77
2022/04/18 02:05:47;;;;;;;15.30;6.78;;;;;;;23.18;15.37;98416.19;5059790;28;21067;-78
2022/04/18 02:08:13;;;;;;;14.20;7.38;;;;;;;23.93;14.75;98403.50;5059047;28;20485;-78
2022/04/18 02:10:39;;;;;;;18.38;8.18;;;;;;;23.89;14.89;98404.78;5080792;28;20028;-78
2022/04/18 02:13:06;;;;;;;12.93;6.15;;;;;;;23.62;15.03;98399.19;5073169;28;20033;-77
2022/04/18 02:15:32;;;;;;;16.90;7.88;;;;;;;23.85;14.95;98399.22;5077909;28;20055;-78
2022/04/18 02:17:58;;;;;;;12.75;6.63;;;;;;;23.53;15.24;98390.50;5078395;28;20032;-78
2022/04/18 02:20:24;;;;;;;14.63;6.90;;;;;;;23.90;14.44;98393.13;5072797;28;20101;-78
2022/04/18 02:22:50;;;;;;;18.80;7.70;;;;;;;23.97;14.62;98375.41;5075021;28;20040;-78
2022/04/18 02:25:16;;;;;;;13.60;6.88;;;;;;;23.63;14.93;98378.34;5073281;28;20040;-78
2022/04/18 02:27:42;;;;;;;13.77;6.72;;;;;;;23.30;15.30;98385.63;5071975;28;20055;-78
2022/04/18 02:30:09;;;;;;;11.00;6.07;;;;;;;22.42;16.57;98385.88;5072474;28;20056;-78
2022/04/18 02:32:48;;;;;;;10.70;5.20;;;;;;;22.73;15.95;98381.16;5074375;28;20082;-78
2022/04/18 02:35:19;;;;;;;18.20;7.47;;;;;;;23.36;15.61;98375.53;5076979;28;20579;-78
2022/04/18 02:37:46;;;;;;;13.90;6.63;;;;;;;23.80;14.99;98374.50;5081927;28;20065;-78
2022/04/18 02:40:12;;;;;;;12.52;6.05;;;;;;;24.14;14.61;98376.34;5077862;28;20028;-78
2022/04/18 02:42:40;;;;;;;17.00;6.60;;;;;;;24.50;14.60;98372.47;5075204;28;20031;-78
2022/04/18 02:45:06;;;;;;;14.05;7.10;;;;;;;24.31;14.78;98381.66;5081195;28;20032;-78
2022/04/18 02:47:32;;;;;;;14.95;7.00;;;;;;;24.34;14.61;98366.75;5079422;28;20031;-78
2022/04/18 02:49:58;;;;;;;13.10;6.28;;;;;;;24.61;14.11;98364.63;5074936;28;20452;-78
2022/04/18 02:52:24;;;;;;;13.63;6.22;;;;;;;24.84;14.07;98369.41;5073725;28;20045;-78
2022/04/18 02:54:50;;;;;;;12.50;6.43;;;;;;;25.00;14.03;98361.06;5077445;28;20033;-77
2022/04/18 02:57:16;;;;;;;9.55;5.10;;;;;;;25.04;13.88;98363.81;5079173;28;20035;-77
2022/04/18 02:59:42;;;;;;;14.38;7.13;;;;;;;24.92;14.08;98356.81;5078549;28;20059;-78
2022/04/18 03:02:08;;;;;;;14.60;6.53;;;;;;;24.91;13.99;98362.84;5071896;28;20040;-78
2022/04/18 03:04:35;;;;;;;15.40;7.05;;;;;;;24.86;14.16;98358.53;5074913;28;20033;-77
2022/04/18 03:07:01;;;;;;;13.00;6.00;;;;;;;24.47;14.27;98367.72;5073412;28;20032;-77
2022/04/18 03:09:28;;;;;;;11.20;5.57;;;;;;;24.50;14.74;98355.66;5072013;28;20039;-77
2022/04/18 03:11:54;;;;;;;13.68;6.22;;;;;;;24.53;14.64;98353.97;5075713;28;20417;-77
2022/04/18 03:14:20;;;;;;;9.27;5.22;;;;;;;24.00;15.07;98350.09;5077283;28;20044;-77
2022/04/18 03:16:47;;;;;;;11.90;5.35;;;;;;;24.22;14.81;98349.75;5073872;28;20047;-77
2022/04/18 03:19:13;;;;;;;12.43;6.60;;;;;;;23.88;15.27;98361.94;5074237;28;20024;-77
2022/04/18 03:21:40;;;;;;;11.63;6.00;;;;;;;24.19;14.93;98359.81;5076794;28;20032;-77
2022/04/18 03:24:07;;;;;;;13.27;6.57;;;;;;;24.34;14.68;98363.16;5076253;28;20569;-78
2022/04/18 03:26:33;;;;;;;12.82;6.03;;;;;;;24.56;14.21;98353.09;5075196;28;20029;-78
2022/04/18 03:28:59;;;;;;;11.77;6.10;;;;;;;24.80;14.20;98348.25;5071833;28;20044;-77
2022/04/18 03:31:25;;;;;;;12.07;6.35;;;;;;;24.85;14.08;98340.13;5076164;28;20119;-77
2022/04/18 03:33:51;;;;;;;13.65;7.13;;;;;;;24.86;13.95;98340.88;5076505;28;20032;-78
2022/04/18 03:41:48;;;;;;;10.45;5.82;;;;;;;23.78;15.27;98340.44;5072105;28;20131;-78
2022/04/18 03:44:14;;;;;;;12.93;6.65;;;;;;;23.25;15.68;98340.47;5078071;28;20028;-77
2022/04/18 03:46:40;;;;;;;10.90;5.63;;;;;;;22.75;16.16;98336.75;5074868;28;20059;-77
2022/04/18 03:49:06;;;;;;;12.90;6.15;;;;;;;23.30;15.82;98345.59;5075125;28;20037;-77
2022/04/18 03:51:32;;;;;;;12.98;6.13;;;;;;;23.74;15.44;98339.72;5074023;28;20423;-77
2022/04/18 03:53:58;;;;;;;14.15;5.80;;;;;;;24.11;15.24;98337.94;5074869;28;20481;-76
2022/04/18 03:56:24;;;;;;;11.30;6.05;;;;;;;24.50;14.90;98338.00;5078249;28;20040;-77
2022/04/18 03:58:50;;;;;;;13.80;6.25;;;;;;;24.86;14.46;98340.88;5070529;28;20486;-76
2022/04/18 04:01:16;;;;;;;12.07;6.35;;;;;;;25.08;14.28;98344.84;5071184;28;20031;-76
2022/04/18 04:03:42;;;;;;;12.07;5.53;;;;;;;25.05;14.61;98332.47;5072015;28;20028;-77
2022/04/18 04:06:08;;;;;;;11.13;5.75;;;;;;;24.86;14.38;98332.47;5072956;28;20036;-77
2022/04/18 04:08:34;;;;;;;11.80;5.88;;;;;;;24.38;15.20;98325.41;5071248;28;20085;-77
2022/04/18 04:11:00;;;;;;;12.23;6.03;;;;;;;24.35;15.16;98319.84;5077756;28;20040;-77
2022/04/18 04:13:26;;;;;;;10.80;5.47;;;;;;;24.63;14.67;98325.69;5070313;28;20036;-77
2022/04/18 04:15:52;;;;;;;11.85;6.35;;;;;;;23.87;15.67;98326.69;5076380;28;20052;-76
2022/04/18 04:18:18;;;;;;;12.57;6.07;;;;;;;23.99;15.35;98317.66;5073849;28;20035;-77
2022/04/18 04:20:44;;;;;;;11.63;5.03;;;;;;;24.29;15.18;98324.38;5076293;28;20435;-77
2022/04/18 04:23:10;;;;;;;10.38;5.70;;;;;;;24.48;14.92;98315.19;5075563;28;20551;-77
2022/04/18 04:25:36;;;;;;;11.25;5.80;;;;;;;24.67;14.65;98314.38;5071795;28;20577;-77
2022/04/18 04:28:03;;;;;;;13.77;6.18;;;;;;;24.90;14.40;98319.94;5074513;28;20063;-77
2022/04/18 04:30:29;;;;;;;16.17;6.45;;;;;;;25.11;14.45;98315.88;5074037;28;20554;-77
2022/04/18 04:32:55;;;;;;;11.18;6.22;;;;;;;25.05;14.56;98320.41;5075602;28;20043;-77
2022/04/18 04:35:21;;;;;;;11.70;6.13;;;;;;;25.24;14.67;98320.38;5078120;28;20040;-77
2022/04/18 04:37:47;;;;;;;12.30;5.43;;;;;;;25.19;14.65;98320.09;5075502;28;20029;-77
2022/04/18 04:40:13;;;;;;;8.95;5.53;;;;;;;24.93;15.03;98327.50;5072129;28;20046;-76
2022/04/18 04:42:39;;;;;;;11.25;5.22;;;;;;;24.55;15.31;98326.28;5074611;28;20072;-76
2022/04/18 04:45:06;;;;;;;10.20;5.32;;;;;;;24.68;15.29;98327.19;5076030;28;20028;-77
2022/04/18 04:47:32;;;;;;;10.40;5.75;;;;;;;25.13;14.99;98317.03;5068168;28;20043;-76
2022/04/18 04:49:58;;;;;;;17.65;8.55;;;;;;;25.39;14.44;98323.66;5071190;28;20070;-77
2022/04/18 04:52:24;;;;;;;16.30;6.70;;;;;;;25.53;14.35;98334.63;5072783;28;20068;-77
2022/04/18 04:54:50;;;;;;;14.30;6.38;;;;;;;25.58;14.26;98322.06;5073525;28;20078;-77
2022/04/18 04:57:17;;;;;;;23.55;9.70;;;;;;;25.64;14.43;98320.28;5070784;28;20452;-78
2022/04/18 04:59:43;;;;;;;13.02;6.57;;;;;;;25.29;14.57;98322.69;5071695;28;20123;-76
2022/04/18 05:02:09;;;;;;;14.95;6.63;;;;;;;25.44;14.27;98328.78;5072572;28;20102;-77
2022/04/18 05:04:35;;;;;;;56.88;18.10;;;;;;;25.55;14.16;98325.72;5070125;28;20033;-79
2022/04/18 05:07:01;;;;;;;11.57;5.57;;;;;;;25.17;14.62;98331.00;5072659;28;20555;-78
2022/04/18 05:09:27;;;;;;;10.48;5.82;;;;;;;25.05;14.75;98332.47;5070934;28;20688;-78
2022/04/18 05:11:53;;;;;;;11.75;5.47;;;;;;;24.90;15.13;98333.97;5063965;28;20029;-77
2022/04/18 05:14:20;;;;;;;12.13;5.72;;;;;;;25.13;14.82;98339.50;5071806;28;20331;-78
2022/04/18 05:16:46;;;;;;;15.55;7.03;;;;;;;25.24;14.79;98333.66;5068277;28;20485;-79
2022/04/18 05:19:12;;;;;;;16.20;7.65;;;;;;;25.40;14.70;98347.72;5072988;28;20508;-77
2022/04/18 05:21:38;;;;;;;13.82;6.63;;;;;;;25.29;15.17;98344.38;5071254;28;20112;-77
2022/04/18 05:24:05;;;;;;;15.93;8.60;;;;;;;25.00;15.61;98344.19;5073432;28;20443;-79
2022/04/18 05:26:31;;;;;;;15.27;8.75;;;;;;;24.73;16.17;98340.75;5066415;28;20363;-77
2022/04/18 05:28:57;;;;;;;16.02;8.93;;;;;;;24.93;15.77;98335.94;5071209;28;20097;-77
2022/04/18 05:31:23;;;;;;;12.27;6.20;;;;;;;25.16;15.69;98337.81;5068489;28;20036;-78
2022/04/18 05:33:49;;;;;;;24.17;8.70;;;;;;;25.61;15.11;98333.19;5072642;28;20314;-76
2022/04/18 05:36:15;;;;;;;36.88;12.15;;;;;;;26.01;14.49;98334.59;5072588;28;20169;-77
2022/04/18 05:38:41;;;;;;;12.90;5.93;;;;;;;26.36;14.36;98338.53;5071795;28;20024;-76
2022/04/18 05:41:08;;;;;;;12.38;5.88;;;;;;;26.35;14.72;98341.81;5070851;28;20024;-76
2022/04/18 05:43:34;;;;;;;11.40;5.93;;;;;;;26.65;14.69;98335.72;5072555;28;20427;-76
2022/04/18 05:46:00;;;;;;;13.82;6.63;;;;;;;26.67;14.28;98334.06;5074180;28;20490;-76
2022/04/18 05:48:26;;;;;;;15.15;6.40;;;;;;;26.82;14.42;98339.28;5073141;28;20032;-76
2022/04/18 05:50:52;;;;;;;11.70;4.53;;;;;;;26.44;14.54;98351.16;5070330;28;20036;-76
2022/04/18 05:53:23;;;;;;;10.60;4.93;;;;;;;25.56;14.76;98353.41;5075037;28;20039;-76
2022/04/18 05:55:49;;;;;;;8.90;5.03;;;;;;;24.88;15.71;98350.47;5077432;28;20114;-75
2022/04/18 05:58:15;;;;;;;9.07;4.63;;;;;;;24.84;15.86;98341.34;5069960;28;20029;-75
2022/04/18 06:00:41;;;;;;;12.32;5.53;;;;;;;25.31;15.53;98328.66;5074481;28;21424;-74
2022/04/18 06:03:07;;;;;;;15.82;6.28;;;;;;;25.75;15.14;98332.06;5074885;28;20363;-77
2022/04/18 06:05:33;;;;;;;17.33;7.40;;;;;;;26.04;14.93;98322.44;5075366;28;20058;-76
2022/04/18 06:08:00;;;;;;;17.40;7.43;;;;;;;26.26;14.75;98319.91;5075249;28;20405;-75
2022/04/18 06:10:26;;;;;;;26.25;11.00;;;;;;;26.36;14.85;98316.00;5073243;28;20032;-79
2022/04/18 06:12:52;;;;;;;25.85;9.65;;;;;;;26.33;15.28;98314.06;5070242;28;20027;-76
2022/04/18 06:15:18;;;;;;;21.88;9.77;;;;;;;26.47;15.14;98324.94;5072954;28;20037;-77
2022/04/18 06:17:44;;;;;;;13.52;5.75;;;;;;;26.35;15.42;98322.09;5070455;28;20497;-77
2022/04/18 06:20:10;;;;;;;14.43;6.45;;;;;;;26.30;15.10;98328.25;5059758;28;20044;-77
2022/04/18 06:22:36;;;;;;;10.45;5.32;;;;;;;26.64;14.30;98329.31;5079899;28;20024;-76
2022/04/18 06:25:03;;;;;;;29.85;11.10;;;;;;;27.09;14.53;98336.88;5074136;28;20039;-76
2022/04/18 06:27:29;;;;;;;11.40;5.63;;;;;;;27.27;14.63;98348.41;5077028;28;20040;-77
2022/04/18 06:29:55;;;;;;;12.57;6.53;;;;;;;27.42;14.38;98347.53;5073904;28;20398;-77
2022/04/18 06:32:24;;;;;;;11.82;4.80;;;;;;;27.26;14.61;98347.59;5074328;28;20508;-79
2022/04/18 06:34:50;;;;;;;11.30;5.45;;;;;;;27.27;14.77;98345.59;5075653;28;20056;-77
2022/04/18 06:37:16;;;;;;;9.45;4.93;;;;;;;27.09;14.52;98345.34;5080350;28;20418;-76
2022/04/18 06:39:45;;;;;;;9.38;5.05;;;;;;;26.99;14.79;98352.06;5078469;28;20481;-77
2022/04/18 06:42:11;;;;;;;8.27;4.68;;;;;;;26.23;15.34;98353.78;5072061;28;20040;-77
2022/04/18 06:44:37;;;;;;;11.60;5.55;;;;;;;26.32;14.97;98346.28;5072974;28;20040;-76
2022/04/18 06:47:04;;;;;;;8.80;4.57;;;;;;;26.38;15.71;98333.25;5070966;28;20058;-76
2022/04/18 06:49:30;;;;;;;11.00;4.80;;;;;;;26.77;15.08;98328.59;5072621;28;20040;-76
2022/04/18 06:51:56;;;;;;;9.48;4.05;;;;;;;27.12;15.14;98321.91;5079984;28;20106;-76
2022/04/18 06:54:22;;;;;;;11.05;4.82;;;;;;;27.59;15.00;98308.72;5076864;28;20090;-77
2022/04/18 06:57:00;;;;;;;10.88;4.72;;;;;;;27.94;14.95;98295.47;5078674;28;20054;-76
2022/04/18 06:59:28;;;;;;;9.98;5.15;;;;;;;28.40;15.16;98297.47;5073044;28;20044;-77
2022/04/18 07:01:55;;;;;;;7.78;4.45;;;;;;;28.28;14.24;98301.16;5078207;28;20393;-77
2022/04/18 07:04:22;;;;;;;7.95;4.05;;;;;;;28.19;15.05;98309.56;5077269;28;20044;-77
2022/04/18 07:06:48;;;;;;;9.23;4.40;;;;;;;28.29;14.64;98301.94;5078746;28;20024;-77
2022/04/18 07:09:14;;;;;;;8.38;4.50;;;;;;;27.62;14.60;98305.00;5075960;28;20113;-76
2022/04/18 07:11:42;;;;;;;5.28;3.38;;;;;;;27.71;15.56;98301.50;5074892;28;20067;-76
2022/04/18 07:14:08;;;;;;;9.05;4.68;;;;;;;28.20;14.78;98296.22;5077435;28;20032;-76
2022/04/18 07:16:34;;;;;;;15.85;5.93;;;;;;;28.39;14.50;98290.28;5079482;28;20074;-77
2022/04/18 07:19:00;;;;;;;8.68;5.00;;;;;;;27.80;14.71;98287.47;5075178;28;20047;-77
2022/04/18 07:21:27;;;;;;;7.53;4.03;;;;;;;27.90;15.35;98289.16;5077241;28;20028;-76
2022/04/18 07:23:53;;;;;;;9.75;5.05;;;;;;;27.96;14.64;98292.97;5078245;28;20040;-77
2022/04/18 07:26:20;;;;;;;6.75;4.03;;;;;;;27.66;15.85;98283.09;5081318;28;20047;-76
2022/04/18 07:28:47;;;;;;;7.25;3.88;;;;;;;28.08;15.08;98287.31;5082604;28;20044;-76
2022/04/18 07:31:14;;;;;;;6.55;3.45;;;;;;;28.42;14.95;98278.06;5077493;28;20048;-76
2022/04/18 07:33:40;;;;;;;6.88;4.32;;;;;;;28.47;14.24;98280.28;5085880;28;20049;-79
2022/04/18 07:36:07;;;;;;;5.82;3.72;;;;;;;28.04;14.66;98277.41;5074229;28;20094;-78
2022/04/18 07:38:50;;;;;;;8.55;4.90;;;;;;;28.23;14.66;98276.31;5085361;28;20171;-79
2022/04/18 07:41:26;;;;;;;6.13;3.78;;;;;;;28.52;14.31;98276.88;5077507;28;20510;-79
2022/04/18 07:43:53;;;;;;;6.68;4.10;;;;;;;28.79;13.85;98272.69;5081827;28;20047;-80
2022/04/18 07:46:19;;;;;;;5.00;3.08;;;;;;;28.75;13.57;98272.84;5077783;28;20032;-80
2022/04/18 07:48:48;;;;;;;7.32;3.92;;;;;;;28.86;13.57;98275.25;5086293;28;20531;-79
2022/04/18 07:51:34;;;;;;;6.90;4.03;;;;;;;28.52;12.93;98276.88;5088778;28;20033;-80
2022/04/18 07:54:03;;;;;;;6.30;3.28;;;;;;;28.36;14.17;98277.06;5075654;28;20418;-79
2022/04/18 07:56:29;;;;;;;6.28;3.33;;;;;;;28.22;13.41;98274.75;5079892;28;20028;-79
2022/04/18 07:58:56;;;;;;;4.22;2.85;;;;;;;28.20;13.46;98267.97;5077043;28;20063;-79
2022/04/18 08:01:22;;;;;;;4.57;2.40;;;;;;;28.53;13.98;98269.97;5079514;28;20113;-79
2022/04/18 08:03:49;;;;;;;4.28;2.65;;;;;;;28.64;13.05;98264.75;5078525;28;20047;-79
2022/04/18 08:06:16;;;;;;;3.25;2.00;;;;;;;28.91;13.75;98261.31;5079772;28;20036;-78
2022/04/18 08:08:43;;;;;;;4.07;2.33;;;;;;;28.95;13.49;98263.97;5081603;28;20028;-77
2022/04/18 08:11:11;;;;;;;2.50;1.90;;;;;;;28.70;13.66;98259.28;5091456;28;20040;-77
2022/04/18 08:13:39;;;;;;;2.38;1.83;;;;;;;28.71;13.35;98258.03;5084311;28;20524;-77
2022/04/18 08:16:05;;;;;;;3.42;1.85;;;;;;;28.85;13.29;98260.31;5084411;28;20032;-77
2022/04/18 08:18:31;;;;;;;3.03;1.88;;;;;;;29.16;13.30;98257.50;5078067;28;20048;-78
2022/04/18 08:20:57;;;;;;;2.63;2.03;;;;;;;29.37;12.67;98254.63;5080555;28;20123;-78
2022/04/18 08:23:24;;;;;;;3.58;2.20;;;;;;;29.06;12.65;98258.69;5075120;28;20036;-78
2022/04/18 08:25:50;;;;;;;3.03;1.60;;;;;;;28.55;13.32;98256.19;5076661;28;20143;-78
2022/04/18 08:28:16;;;;;;;2.97;1.73;;;;;;;28.90;13.77;98256.09;5093374;28;20044;-78
2022/04/18 08:30:42;;;;;;;1.30;1.13;;;;;;;29.54;13.04;98252.31;5079365;28;20028;-78
2022/04/18 08:33:08;;;;;;;4.00;2.15;;;;;;;29.45;12.62;98251.50;5094627;28;20032;-78
2022/04/18 08:35:34;;;;;;;2.15;1.50;;;;;;;29.16;13.11;98246.97;5075655;28;20448;-78
2022/04/18 08:38:01;;;;;;;4.80;2.10;;;;;;;28.66;12.90;98248.09;5069203;28;20076;-78
2022/04/18 08:40:27;;;;;;;3.55;2.15;;;;;;;25.36;15.54;98257.06;5065794;28;20037;-78
2022/04/18 08:42:56;;;;;;;5.60;2.40;;;;;;;23.92;16.99;98258.13;5068352;28;20042;-78
2022/04/18 08:45:25;;;;;;;5.10;2.70;;;;;;;23.59;17.08;98245.09;5070590;28;20039;-78
2022/04/18 08:53:26;;;;;;;4.68;2.47;;;;;;;24.72;16.17;98243.66;5081730;28;20454;-78
2022/04/18 08:55:54;;;;;;;4.60;2.60;;;;;;;25.71;15.44;98247.78;5074831;28;20110;-78
2022/04/18 08:58:21;;;;;;;6.32;3.08;;;;;;;23.78;16.23;98238.75;5074291;28;20036;-78
2022/04/18 09:00:47;;;;;;;3.60;2.50;;;;;;;22.75;16.83;98241.56;5076438;28;20028;-77
2022/04/18 09:03:14;;;;;;;4.05;2.22;;;;;;;24.15;16.23;98246.88;5089221;28;20115;-78
2022/04/18 09:05:40;;;;;;;3.00;2.20;;;;;;;25.67;14.34;98224.56;5075629;28;20226;-80
2022/04/18 09:08:07;;;;;;;3.28;2.30;;;;;;;26.61;13.11;98228.78;5077945;28;20040;-78
2022/04/18 09:10:36;;;;;;;3.47;2.10;;;;;;;27.16;13.07;98221.88;5072422;28;20036;-79
2022/04/18 09:13:04;;;;;;;4.35;1.88;;;;;;;26.39;13.85;98225.03;5078826;28;20059;-79
2022/04/18 09:15:42;;;;;;;4.20;2.47;;;;;;;23.74;15.06;98227.56;5073123;28;20039;-79
2022/04/18 09:18:10;;;;;;;3.15;2.38;;;;;;;25.09;14.14;98225.59;5073889;28;20032;-79
2022/04/18 09:20:57;;;;;;;4.32;2.40;;;;;;;24.99;13.61;98218.22;5078754;28;20032;-79
2022/04/18 09:23:25;;;;;;;2.40;1.65;;;;;;;23.78;14.98;98213.50;5074751;28;20021;-79
2022/04/18 09:26:04;;;;;;;3.60;1.90;;;;;;;23.13;14.83;98218.59;5072654;28;20402;-78
2022/04/18 09:28:35;;;;;;;2.08;1.85;;;;;;;20.42;17.22;98218.56;5080325;28;20040;-79
2022/04/18 09:31:07;;;;;;;2.45;1.80;;;;;;;21.41;16.61;98220.69;5075760;28;20047;-79
2022/04/18 09:33:40;;;;;;;5.35;2.63;;;;;;;20.20;17.28;98215.03;5076513;28;20115;-79
2022/04/18 09:36:32;;;;;;;4.78;2.13;;;;;;;21.52;16.43;98211.00;5083090;28;20036;-79
2022/04/18 09:38:58;;;;;;;3.45;2.17;;;;;;;23.04;14.88;98193.13;5074413;28;20132;-79
2022/04/18 09:41:28;;;;;;;2.85;2.13;;;;;;;25.04;13.90;98193.19;5073945;28;20131;-79
2022/04/18 09:43:55;;;;;;;2.78;1.80;;;;;;;26.19;12.52;98190.63;5073290;28;20035;-78
2022/04/18 09:46:22;;;;;;;2.00;1.75;;;;;;;26.72;12.17;98189.06;5081001;28;20115;-79
2022/04/18 09:48:50;;;;;;;2.30;1.80;;;;;;;23.85;14.04;98191.72;5080458;28;20054;-79
2022/04/18 09:51:29;;;;;;;4.40;2.55;;;;;;;22.23;14.89;98199.06;5082268;28;20028;-79
2022/04/18 09:53:57;;;;;;;3.60;2.05;;;;;;;22.97;14.74;98190.44;5072819;28;20037;-80
2022/04/18 09:56:26;;;;;;;1.65;1.38;;;;;;;25.12;13.56;98189.00;5075963;28;20056;-78
2022/04/18 09:58:53;;;;;;;2.38;1.90;;;;;;;23.99;14.94;98188.63;5083574;28;20107;-79
2022/04/18 10:01:19;;;;;;;3.22;2.03;;;;;;;22.21;16.02;98195.91;5079201;28;20066;-79
2022/04/18 10:03:52;;;;;;;2.35;1.80;;;;;;;22.31;16.38;98192.94;5077484;28;20032;-79
2022/04/18 10:06:20;;;;;;;5.10;2.33;;;;;;;21.21;15.95;98195.34;5079818;28;20107;-79
2022/04/18 10:08:46;;;;;;;2.35;1.75;;;;;;;22.00;16.36;98188.56;5080136;28;20024;-79
2022/04/18 10:11:12;;;;;;;2.53;1.63;;;;;;;24.36;14.54;98173.50;5080756;28;20040;-79
2022/04/18 10:13:39;;;;;;;2.40;1.75;;;;;;;25.07;13.58;98181.09;5071439;28;20040;-79
2022/04/18 10:16:06;;;;;;;5.63;2.33;;;;;;;23.67;15.20;98187.66;5083017;28;20036;-80
2022/04/18 10:18:50;;;;;;;2.50;1.80;;;;;;;23.32;14.49;98181.44;5083900;28;20054;-80
2022/04/18 10:21:29;;;;;;;2.85;1.80;;;;;;;21.09;16.67;98176.28;5078266;28;20024;-78
2022/04/18 10:24:22;;;;;;;1.98;1.65;;;;;;;20.37;17.65;98183.53;5076929;28;20044;-80
2022/04/18 10:27:30;;;;;;;2.35;1.80;;;;;;;21.59;16.56;98182.97;5076906;28;20033;-81
2022/04/18 10:30:00;;;;;;;2.83;2.08;;;;;;;24.25;14.71;98175.72;5016587;28;20136;-80
2022/04/18 10:32:27;;;;;;;2.78;1.45;;;;;;;25.14;13.76;98172.50;5038906;28;20509;-79
2022/04/18 10:35:01;;;;;;;2.47;1.30;;;;;;;25.32;13.46;98167.19;5040837;28;20088;-79
2022/04/18 10:37:29;;;;;;;2.75;1.73;;;;;;;25.42;13.21;98165.34;5041815;28;20029;-79
2022/04/18 10:40:04;;;;;;;2.30;1.55;;;;;;;24.57;13.73;98164.59;5038558;28;20116;-80
2022/04/18 10:42:33;;;;;;;2.10;1.90;;;;;;;24.97;13.51;98153.28;5032381;28;20048;-80
2022/04/18 10:45:18;;;;;;;2.42;1.73;;;;;;;23.86;14.78;98165.28;5036116;28;20487;-80
2022/04/18 10:48:00;;;;;;;3.38;1.80;;;;;;;24.95;13.88;98150.13;5035208;28;20037;-79
2022/04/18 10:50:37;;;;;;;1.77;1.50;;;;;;;25.77;12.90;98158.00;5038170;28;20091;-79
2022/04/18 10:53:15;;;;;;;2.67;1.63;;;;;;;26.30;12.69;98148.88;5039806;28;20037;-79
2022/04/18 10:56:01;;;;;;;1.48;1.38;;;;;;;27.38;12.28;98151.50;5039881;28;20065;-79
2022/04/18 10:58:32;;;;;;;2.38;1.23;;;;;;;26.59;11.73;98143.16;5042671;28;20083;-79
2022/04/18 11:01:03;;;;;;;3.92;1.35;;;;;;;25.45;12.50;98149.66;5035747;28;20033;-79
2022/04/18 11:03:43;;;;;;;3.22;1.55;;;;;;;24.08;13.73;98145.25;5039371;28;20037;-79
2022/04/18 11:06:17;;;;;;;1.77;1.40;;;;;;;22.31;15.30;98144.63;5040716;28;20072;-79
2022/04/18 11:09:07;;;;;;;1.88;1.15;;;;;;;24.08;13.45;98140.44;5038499;28;20387;-79
2022/04/18 11:12:00;;;;;;;1.40;1.10;;;;;;;25.04;13.27;98144.66;5042410;28;20091;-79
2022/04/18 11:14:31;;;;;;;2.17;1.30;;;;;;;25.47;12.22;98141.56;5038695;28;20035;-78
2022/04/18 11:17:02;;;;;;;1.13;1.00;;;;;;;23.63;13.88;98142.09;5036367;28;20029;-80
2022/04/18 11:19:37;;;;;;;1.67;1.33;;;;;;;23.60;14.52;98142.94;5038822;28;20534;-81
2022/04/18 11:22:10;;;;;;;1.70;1.20;;;;;;;25.90;13.17;98120.28;5039681;28;20502;-79
2022/04/18 11:24:58;;;;;;;3.55;1.33;;;;;;;27.77;11.96;98117.06;5047315;28;20556;-82
2022/04/18 11:27:26;;;;;;;1.40;1.30;;;;;;;26.69;11.74;98116.69;5044045;28;20429;-80
2022/04/18 11:29:58;;;;;;;1.80;1.20;;;;;;;26.02;12.17;98115.94;5079576;28;20081;-80
2022/04/18 11:32:30;;;;;;;2.15;1.20;;;;;;;25.63;12.81;98107.78;5076573;28;20103;-80
2022/04/18 11:34:58;;;;;;;1.52;1.15;;;;;;;26.55;12.35;98109.50;5075622;28;20051;-80
2022/04/18 11:37:39;;;;;;;2.10;1.27;;;;;;;26.67;11.46;98107.91;5076093;28;20473;-80
2022/04/18 11:40:08;;;;;;;1.52;1.17;;;;;;;25.18;12.45;98108.56;5076365;28;20521;-80
2022/04/18 11:42:35;;;;;;;1.30;1.20;;;;;;;23.38;14.02;98106.16;5073312;28;20025;-80
2022/04/18 11:45:04;;;;;;;1.42;0.93;;;;;;;24.65;13.84;98109.06;5076955;28;20511;-80
2022/04/18 11:47:40;;;;;;;1.63;1.13;;;;;;;25.70;12.26;98107.59;5072259;28;20390;-80